• Join FlightAware (Why Join?)
  • Login
  • US Flag 
01:19AM EDT


 

Airport Tracker/Info


-or-


 

Live Flight TrackerFlight Track Log ✈ N23540 ✈ 26-Mar-2010 ✈ KGBD - KLVS

Flight Track Log - Related Links

Times and Time Zones

All times are in EDT time to prevent confusion due to time zone crossing. See the N23540 flight status page for this flight to view local times or setup timezone preferences in your user account.

Time Position Orientation Groundspeed Altitude Reporting Facility
EDT Latitude Longitude Course Direction KTS MPH feet Rate Location/Type
11:24AM 38.3450 -98.8586 244° Southwest 8,000  Level Kansas City Center
11:25AM 38.3169 -98.9336 237° Southwest 134 154 4,200 -1,740 Descending Kansas City Center
11:26AM 38.3036 -98.9594 244° Southwest 102 117 4,600 480 Climbing Kansas City Center
11:27AM 38.2919 -98.9906 249° West 97 112 5,200 600 Climbing Kansas City Center
11:28AM 38.2825 -99.0217 242° Southwest 97 112 5,800 300 Climbing Kansas City Center
11:29AM 38.2686 -99.0553 242° Southwest 97 112 5,900  Climbing Kansas City Center
11:30AM 38.2528 -99.0939 240° Southwest 104 120 5,900  Level Kansas City Center
11:31AM 38.2367 -99.1300 249° West 118 136 5,900  Level Kansas City Center
11:32AM 38.2247 -99.1689 239° Southwest 118 136 5,900  Level Kansas City Center
11:33AM 38.2089 -99.2022 245° Southwest 118 136 5,900  Level Kansas City Center
11:34AM 38.1947 -99.2408 242° Southwest 118 136 5,900  Level Kansas City Center
11:35AM 38.1808 -99.2744 242° Southwest 118 136 5,900  Level Kansas City Center
11:36AM 38.1669 -99.3078 243° Southwest 112 129 5,900  Level Kansas City Center
11:37AM 38.1533 -99.3414 232° Southwest 112 129 5,900  Level Kansas City Center
11:38AM 38.1331 -99.3742 225° Southwest 112 129 5,900  Level Kansas City Center
11:39AM 38.1133 -99.3994 225° Southwest 112 129 5,900  Level Kansas City Center
11:40AM 38.0936 -99.4244 231° Southwest 112 129 5,900  Level Kansas City Center
11:41AM 38.0756 -99.4522 228° Southwest 107 123 5,900  Level Kansas City Center
11:42AM 38.0578 -99.4775 229° Southwest 107 123 5,900  Level Kansas City Center
11:43AM 38.0403 -99.5028 230° Southwest 107 123 5,900  Level Kansas City Center
11:44AM 38.0200 -99.5331 231° Southwest 107 123 5,900  Level Kansas City Center
11:45AM 38.0022 -99.5608 232° Southwest 107 123 5,900  Level Kansas City Center
11:46AM 37.9867 -99.5861 230° Southwest 107 123 5,900  Level Kansas City Center
11:47AM 37.9686 -99.6139 227° Southwest 107 123 5,900  Level Kansas City Center
11:48AM 37.9467 -99.6439 228° Southwest 107 123 5,900  Level Kansas City Center
11:49AM 37.9289 -99.6692 229° Southwest 107 123 5,900  Level Kansas City Center
11:50AM 37.9133 -99.6917 232° Southwest 107 123 5,900  Level Kansas City Center
11:51AM 37.8975 -99.7169 227° Southwest 107 123 5,900  Level Kansas City Center
11:52AM 37.8775 -99.7444 233° Southwest 107 123 5,900  Level Kansas City Center
11:53AM 37.8594 -99.7747 229° Southwest 107 123 5,900  Level Kansas City Center
11:54AM 37.8439 -99.7975 237° Southwest 107 123 5,900  Level Kansas City Center
11:55AM 37.8281 -99.8278 235° Southwest 102 117 5,900  Level Kansas City Center
11:56AM 37.8142 -99.8531 222° Southwest 102 117 5,900  Level Kansas City Center
11:57AM 37.7922 -99.8778 234° Southwest 102 117 5,900  Level Kansas City Center
11:58AM 37.7789 -99.9006 234° Southwest 102 117 5,900  Level Kansas City Center
11:59AM 37.7628 -99.9283 228° Southwest 102 117 5,900  Level Kansas City Center
12:00PM 37.7450 -99.9533 225° Southwest 107 123 5,900  Level Kansas City Center
12:01PM 37.7231 -99.9806 228° Southwest 107 123 5,900  Level Kansas City Center
12:02PM 37.7050 -100.0060 230° Southwest 107 123 5,900  Level Kansas City Center
12:03PM 37.6850 -100.0360 224° Southwest 107 123 5,900  Level Kansas City Center
12:04PM 37.6650 -100.0600 231° Southwest 107 123 5,900  Level Kansas City Center
12:05PM 37.6469 -100.0880 228° Southwest 107 123 5,900  Level Kansas City Center
12:06PM 37.6314 -100.1100 230° Southwest 107 123 5,900 -60 Level Kansas City Center
12:07PM 37.6111 -100.1400 231° Southwest 107 123 5,800 -60 Descending Kansas City Center
12:08PM 37.5933 -100.1680 227° Southwest 107 123 5,800  Level Kansas City Center
12:09PM 37.5753 -100.1920 234° Southwest 107 123 5,800  Level Kansas City Center
12:10PM 37.5594 -100.2200 237° Southwest 107 123 5,800  Level Kansas City Center
12:11PM 37.5433 -100.2510 233° Southwest 107 123 5,800  Level Kansas City Center
12:12PM 37.5253 -100.2810 230° Southwest 107 123 5,900 60 Climbing Kansas City Center
12:13PM 37.5072 -100.3080 228° Southwest 107 123 6,000  Climbing Kansas City Center
12:14PM 37.4914 -100.3300 227° Southwest 107 123 6,000  Level Kansas City Center
12:15PM 37.4669 -100.3630 221° Southwest 107 123 6,000  Level Kansas City Center
12:16PM 37.4428 -100.3890 230° Southwest 107 123 6,000 -60 Level Kansas City Center
12:17PM 37.4225 -100.4190 225° Southwest 107 123 5,900  Descending Kansas City Center
12:18PM 37.4025 -100.4440 229° Southwest 107 123 6,000  Climbing Kansas City Center
12:19PM 37.3800 -100.4760 227° Southwest 107 123 5,900 -60 Descending Kansas City Center
12:20PM 37.3575 -100.5060 231° Southwest 112 129 5,900  Level Kansas City Center
12:21PM 37.3372 -100.5380 224° Southwest 112 129 6,000  Climbing Kansas City Center
12:22PM 37.3150 -100.5650 230° Southwest 118 136 5,900 -60 Descending Kansas City Center
12:23PM 37.2900 -100.6020 230° Southwest 123 142 5,900  Level Kansas City Center
12:24PM 37.2697 -100.6320 237° Southwest 128 147 6,000  Climbing Kansas City Center
12:25PM 37.2514 -100.6670 230° Southwest 121 139 5,900 -60 Descending Kansas City Center
12:26PM 37.2333 -100.6940 228° Southwest 121 139 5,900  Level Kansas City Center
12:27PM 37.2083 -100.7290 232° Southwest 126 145 5,900  Level Kansas City Center
12:28PM 37.1881 -100.7610 234° Southwest 126 145 5,900  Level Kansas City Center
12:29PM 37.1697 -100.7930 233° Southwest 125 144 6,000  Climbing Kansas City Center
12:30PM 37.1489 -100.8280 233° Southwest 125 144 6,000 -60 Level Kansas City Center
12:31PM 37.1239 -100.8700 226° Southwest 125 144 5,900  Descending Kansas City Center
12:32PM 37.1014 -100.8990 228° Southwest 125 144 6,000  Climbing Kansas City Center
12:33PM 37.0764 -100.9340 224° Southwest 130 150 6,000  Level Kansas City Center
12:34PM 37.0542 -100.9610 241° Southwest 135 155 6,000 -60 Level Kansas City Center
12:35PM 37.0353 -101.0030 241° Southwest 128 147 5,900 -60 Descending Kansas City Center
12:36PM 37.0186 -101.0410 242° Southwest 128 147 5,900  Level Kansas City Center
12:37PM 37.0017 -101.0810 236° Southwest 128 147 5,900  Level Kansas City Center
12:38PM 36.9831 -101.1160 239° Southwest 133 153 5,900  Level Kansas City Center
12:39PM 36.9642 -101.1560 241° Southwest 133 153 5,900  Level Kansas City Center
12:40PM 36.9475 -101.1930 233° Southwest 133 153 6,000  Climbing Kansas City Center
12:41PM 36.9244 -101.2310 223° Southwest 138 159 6,000 300 Level Kansas City Center
12:42PM 36.9067 -101.2520 228° Southwest 121 139 6,600 600 Climbing Kansas City Center
12:43PM 36.8886 -101.2770 230° Southwest 98 113 7,300 540 Climbing Kansas City Center
12:44PM 36.8725 -101.3010 224° Southwest 98 113 7,700 300 Climbing Kansas City Center
12:45PM 36.8544 -101.3230 230° Southwest 91 105 7,900 60 Climbing Kansas City Center
12:46PM 36.8364 -101.3500 230° Southwest 101 116 7,900  Level Kansas City Center
12:47PM 36.8133 -101.3840 217° Southwest 115 132 7,900 60 Level Kansas City Center
12:48PM 36.7986 -101.3980 233° Southwest 122 140 8,000 60 Climbing Albuquerque Center
12:49PM 36.7736 -101.4390 233° Southwest 122 140 8,000  Level Albuquerque Center
12:50PM 36.7544 -101.4710 236° Southwest 122 140 8,000  Level Albuquerque Center
12:51PM 36.7353 -101.5060 234° Southwest 122 140 8,000  Level Albuquerque Center
12:52PM 36.7158 -101.5390 237° Southwest 132 152 8,000  Level Albuquerque Center
12:53PM 36.6950 -101.5790 227° Southwest 132 152 8,000  Level Albuquerque Center
12:54PM 36.6694 -101.6130 227° Southwest 132 152 8,000  Level Albuquerque Center
12:55PM 36.6458 -101.6450 228° Southwest 132 152 8,000  Level Albuquerque Center
12:56PM 36.6244 -101.6750 230° Southwest 137 158 8,000  Level Albuquerque Center
12:57PM 36.5992 -101.7130 228° Southwest 137 158 8,000  Level Albuquerque Center
12:58PM 36.5736 -101.7490 230° Southwest 137 158 8,000  Level Albuquerque Center
12:59PM 36.5522 -101.7810 235° Southwest 142 163 8,000  Level Albuquerque Center
01:00PM 36.5292 -101.8220 235° Southwest 142 163 8,000  Level Albuquerque Center
01:01PM 36.5097 -101.8570 233° Southwest 142 163 8,000  Level Albuquerque Center
01:02PM 36.4864 -101.8950 237° Southwest 137 158 8,000  Level Albuquerque Center
01:03PM 36.4672 -101.9320 233° Southwest 132 152 8,000  Level Albuquerque Center
01:04PM 36.4458 -101.9670 231° Southwest 132 152 8,000  Level Albuquerque Center
01:05PM 36.4225 -102.0030 232° Southwest 132 152 8,000  Level Albuquerque Center
01:06PM 36.4011 -102.0370 231° Southwest 132 152 8,000  Level Albuquerque Center
01:07PM 36.3775 -102.0730 230° Southwest 132 152 8,000  Level Albuquerque Center
01:08PM 36.3542 -102.1080 234° Southwest 132 152 8,000  Level Albuquerque Center
01:09PM 36.3328 -102.1450 230° Southwest 132 152 8,000  Level Albuquerque Center
01:10PM 36.3114 -102.1770 231° Southwest 132 152 8,000 240 Level Albuquerque Center
01:11PM 36.2897 -102.2100 236° Southwest 132 152 8,500 480 Climbing Albuquerque Center
01:12PM 36.2742 -102.2390 234° Southwest 127 146 9,000 360 Climbing Albuquerque Center
01:13PM 36.2586 -102.2660 228° Southwest 107 123 9,300 360 Climbing Albuquerque Center
01:14PM 36.2350 -102.2990 246° West 111 128 9,800 360 Climbing Albuquerque Center
01:15PM 36.2258 -102.3250 236° Southwest 99 114 10,100 60 Climbing Albuquerque Center
01:16PM 36.2083 -102.3570 254° West 110 127 10,000 -60 Descending Albuquerque Center
01:17PM 36.1994 -102.3960 226° Southwest 110 127 10,000  Level Albuquerque Center
01:18PM 36.1756 -102.4260 228° Southwest 124 143 10,000  Level Albuquerque Center
01:19PM 36.1500 -102.4610 225° Southwest 131 151 10,000  Level Albuquerque Center
01:20PM 36.1242 -102.4930 231° Southwest 138 159 10,000  Level Albuquerque Center
01:21PM 36.1044 -102.5230 237° Southwest 138 159 10,000  Level Albuquerque Center
01:22PM 36.0853 -102.5600 251° West 132 152 10,000  Level Albuquerque Center
01:23PM 36.0742 -102.5990 257° West 126 145 10,000  Level Albuquerque Center
01:24PM 36.0672 -102.6360 253° West 121 139 10,000  Level Albuquerque Center
01:25PM 36.0583 -102.6720 254° West 121 139 10,000  Level Albuquerque Center
01:26PM 36.0494 -102.7110 255° West 116 133 10,000  Level Albuquerque Center
01:27PM 36.0406 -102.7530 254° West 116 133 10,000  Level Albuquerque Center
01:28PM 36.0317 -102.7920 257° West 121 139 10,000  Level Albuquerque Center
01:29PM 36.0247 -102.8310 253° West 121 139 10,000  Level Albuquerque Center
01:30PM 36.0156 -102.8670 256° West 126 145 10,000  Level Albuquerque Center
01:31PM 36.0069 -102.9110 258° West 126 145 10,100  Climbing Albuquerque Center
01:32PM 36.0000 -102.9500 257° West 131 151 10,000 -60 Descending Albuquerque Center
01:33PM 35.9931 -102.9870 254° West 131 151 10,000  Level Albuquerque Center
01:34PM 35.9839 -103.0260 252° West 126 145 10,000  Level Albuquerque Center
01:35PM 35.9747 -103.0620 265° West 126 145 10,000  Level Albuquerque Center
01:36PM 35.9719 -103.1010 257° West 126 145 10,000  Level Albuquerque Center
01:37PM 35.9650 -103.1390 262° West 126 145 10,000  Level Albuquerque Center
01:38PM 35.9603 -103.1830 262° West 126 145 10,000  Level Albuquerque Center
01:39PM 35.9556 -103.2250 258° West 126 145 10,000  Level Albuquerque Center
01:40PM 35.9486 -103.2660 262° West 121 139 10,000  Level Albuquerque Center
01:41PM 35.9439 -103.3080 258° West 126 145 10,000  Level Albuquerque Center
01:42PM 35.9369 -103.3490 264° West 126 145 10,000  Level Albuquerque Center
01:43PM 35.9339 -103.3870 264° West 126 145 10,000  Level Albuquerque Center
01:44PM 35.9308 -103.4240 260° West 126 145 10,000  Level Albuquerque Center
01:45PM 35.9258 -103.4600 260° West 121 139 10,000  Level Albuquerque Center
01:46PM 35.9208 -103.4960 260° West 121 139 10,000  Level Albuquerque Center
01:47PM 35.9156 -103.5320 260° West 112 129 10,000  Level Albuquerque Center
01:48PM 35.9106 -103.5680 256° West 107 123 10,000  Level Albuquerque Center
01:49PM 35.9033 -103.6040 257° West 107 123 10,000  Level Albuquerque Center
01:50PM 35.8961 -103.6410 264° West 107 123 10,000  Level Albuquerque Center
01:51PM 35.8931 -103.6790 262° West 112 129 10,000  Level Albuquerque Center
01:52PM 35.8881 -103.7210 260° West 118 136 10,000  Level Albuquerque Center
01:53PM 35.8831 -103.7570 258° West 118 136 10,000  Level Albuquerque Center
01:54PM 35.8758 -103.8010 261° West 124 143 10,000  Level Albuquerque Center
01:55PM 35.8708 -103.8390 258° West 124 143 10,000  Level Albuquerque Center
01:56PM 35.8636 -103.8810 265° West 124 143 10,000  Level Albuquerque Center
01:57PM 35.8608 -103.9220 265° West 124 143 10,000  Level Albuquerque Center
01:58PM 35.8578 -103.9630 259° West 124 143 10,000 -60 Level Albuquerque Center
01:59PM 35.8506 -104.0070 262° West 124 143 9,900 -60 Descending Albuquerque Center
02:00PM 35.8456 -104.0530 259° West 129 148 9,900  Level Albuquerque Center
02:01PM 35.8386 -104.0990 263° West 141 162 10,000  Climbing Albuquerque Center
02:02PM 35.8336 -104.1480 257° West 141 162 9,900 -60 Descending Albuquerque Center
02:03PM 35.8244 -104.1980 256° West 141 162 9,900  Level Albuquerque Center
02:04PM 35.8153 -104.2440 253° West 141 162 9,900  Level Albuquerque Center
02:05PM 35.8039 -104.2910 256° West 146 168 9,900  Level Albuquerque Center
02:06PM 35.7947 -104.3370 257° West 146 168 9,900  Level Albuquerque Center
02:07PM 35.7856 -104.3860 255° West 146 168 9,900  Level Albuquerque Center
02:08PM 35.7761 -104.4300 262° West 146 168 9,900  Level Albuquerque Center
02:09PM 35.7708 -104.4740 257° West 140 161 9,900  Level Albuquerque Center
02:10PM 35.7636 -104.5120 262° West 135 155 10,000  Climbing Albuquerque Center
02:11PM 35.7583 -104.5610 263° West 129 148 9,900 -60 Descending Albuquerque Center
02:12PM 35.7533 -104.6100 254° West 134 154 9,900  Level Albuquerque Center
02:13PM 35.7439 -104.6510 255° West 139 160 9,900  Level Albuquerque Center
02:14PM 35.7344 -104.6950 256° West 139 160 10,000  Climbing Albuquerque Center
02:15PM 35.7250 -104.7410 254° West 139 160 9,900 -60 Descending Albuquerque Center
02:16PM 35.7133 -104.7900 261° West 139 160 9,900  Level Albuquerque Center
02:17PM 35.7081 -104.8310 257° West 144 166 10,000  Climbing Albuquerque Center
02:18PM 35.6986 -104.8800 257° West 144 166 10,000  Level Albuquerque Center